Time;durP1;ratioP1;P1;durP2;ratioP2;P2;SDS_P1;SDS_P2;PMS_P1;PMS_P2;Temp;Humidity;BMP_temperature;BMP_pressure;BME280_temperature;BME280_humidity;BME280_pressure;Samples;Min_cycle;Max_cycle;Signal;HPM_P1;HPM_P2
2021/01/18 11:32:35;;;;;;;75.72;40.55;;;;;;;-9.77;67.87;96218.63;4949380;29;20393;-92
2021/01/18 11:35:00;;;;;;;70.55;36.47;;;;;;;-10.18;66.88;96170.44;4945947;29;20038;-93
2021/01/18 11:37:26;;;;;;;71.55;37.67;;;;;;;-9.41;67.77;96251.28;4944946;29;20028;-93
2021/01/18 11:39:52;;;;;;;70.00;38.75;;;;;;;-9.60;67.95;96213.13;4946659;29;20501;-93
2021/01/18 11:42:18;;;;;;;85.78;45.70;;;;;;;-9.35;68.10;96234.94;4945267;29;20475;-93
2021/01/18 11:48:11;;;;;;;110.10;55.65;;;;;;;-9.16;67.50;96249.34;4953967;29;20451;-92
2021/01/18 11:50:38;;;;;;;99.13;50.63;;;;;;;-9.30;66.45;96249.72;4953963;29;20087;-95
2021/01/18 11:53:03;;;;;;;98.03;49.88;;;;;;;-9.88;66.96;96157.84;4946613;29;20038;-92
2021/01/18 11:55:29;;;;;;;105.18;53.58;;;;;;;-8.99;66.76;96278.84;4942986;29;20323;-94
2021/01/18 11:57:55;;;;;;;108.20;52.65;;;;;;;-9.15;66.87;96229.84;4945530;29;20028;-93
2021/01/18 12:00:23;;;;;;;100.55;51.92;;;;;;;-9.77;67.51;96124.75;4942408;29;20416;-93
2021/01/18 12:03:00;;;;;;;90.38;46.88;;;;;;;-9.39;66.19;96184.06;4943611;29;20147;-93
2021/01/18 12:05:28;;;;;;;87.70;45.42;;;;;;;-9.12;67.06;96197.59;4942521;29;20032;-94
2021/01/18 12:08:00;;;;;;;79.93;41.05;;;;;;;-9.11;66.60;96197.25;4942550;29;20498;-95
2021/01/18 12:10:26;;;;;;;93.53;43.28;;;;;;;-8.53;66.54;96262.78;4942497;29;20038;-94
2021/01/18 12:12:52;;;;;;;74.15;39.80;;;;;;;-9.07;66.28;96160.50;4940807;29;20324;-94
2021/01/18 12:15:19;;;;;;;78.63;41.38;;;;;;;-8.88;65.60;96171.19;4955421;28;20347;-95
2021/01/18 12:17:45;;;;;;;79.63;41.20;;;;;;;-8.63;65.62;96208.69;4942362;29;20048;-94
2021/01/18 12:20:13;;;;;;;76.25;42.03;;;;;;;-8.98;65.91;96138.19;4943473;29;20051;-93
2021/01/18 12:22:39;;;;;;;79.43;43.63;;;;;;;-8.94;65.51;96140.94;4960175;28;20019;-94
2021/01/18 12:25:06;;;;;;;82.25;45.78;;;;;;;-8.04;66.09;96262.47;4945674;29;20034;-94
2021/01/18 12:27:32;;;;;;;81.63;46.10;;;;;;;-8.71;64.92;96162.97;4960685;28;20031;-94
2021/01/18 12:29:58;;;;;;;79.15;42.35;;;;;;;-8.63;64.35;96163.91;4946403;29;20233;-93
2021/01/18 12:32:24;;;;;;;77.60;42.08;;;;;;;-9.25;63.07;96079.22;4943669;29;20055;-94
2021/01/18 12:34:49;;;;;;;84.43;43.72;;;;;;;-8.36;64.58;96209.00;4960896;28;20039;-94
2021/01/18 12:37:15;;;;;;;82.03;44.88;;;;;;;-8.82;64.53;96146.13;4945290;29;20323;-94
2021/01/18 12:39:41;;;;;;;83.97;43.78;;;;;;;-7.98;64.33;96245.34;4944331;29;20055;-94
2021/01/18 12:42:07;;;;;;;86.10;44.58;;;;;;;-8.48;66.11;96165.03;4943642;29;20136;-94
2021/01/18 12:44:33;;;;;;;87.10;43.97;;;;;;;-8.63;64.94;96134.94;4942102;29;20074;-94
2021/01/18 12:47:00;;;;;;;81.65;42.20;;;;;;;-8.35;65.70;96169.13;4944765;29;20083;-94
2021/01/18 12:49:25;;;;;;;75.60;41.92;;;;;;;-8.35;63.65;96155.19;4943003;29;20029;-95
2021/01/18 12:51:51;;;;;;;79.07;42.45;;;;;;;-8.95;63.89;96064.91;4945186;29;20095;-95
2021/01/18 12:54:17;;;;;;;82.13;43.30;;;;;;;-8.68;64.93;96100.19;4944079;29;20038;-95
2021/01/18 12:56:43;;;;;;;88.85;46.58;;;;;;;-8.50;65.93;96096.88;4946322;29;20063;-94
2021/01/18 12:59:08;;;;;;;89.13;48.13;;;;;;;-7.78;66.43;96190.78;4941870;29;20051;-94
2021/01/18 13:01:35;;;;;;;91.63;48.67;;;;;;;-8.30;66.31;96125.94;4941538;29;20031;-94
2021/01/18 13:04:02;;;;;;;89.53;47.90;;;;;;;-7.72;65.50;96208.66;4941720;29;20031;-95
2021/01/18 13:06:38;;;;;;;85.05;46.97;;;;;;;-7.54;65.85;96227.50;4946870;29;20024;-94
2021/01/18 13:09:15;;;;;;;98.03;49.88;;;;;;;-8.08;66.30;96154.31;4963670;28;20118;-95
2021/01/18 13:11:46;;;;;;;93.50;49.65;;;;;;;-8.16;65.67;96134.16;4947824;29;20476;-95
2021/01/18 13:14:11;;;;;;;;;;;;;;;-7.30;65.59;96247.63;4950030;29;20019;-95
2021/01/18 13:16:37;;;;;;;94.35;47.90;;;;;;;-7.99;66.33;96149.63;4951167;29;19918;-95
2021/01/18 13:19:02;;;;;;;91.97;48.80;;;;;;;-7.93;66.57;96169.38;4951219;29;20027;-96
2021/01/18 13:21:28;;;;;;;96.07;51.30;;;;;;;-7.25;66.72;96257.16;4950392;29;20024;-95
2021/01/18 13:23:53;;;;;;;97.80;51.42;;;;;;;-8.04;67.07;96123.53;4950318;29;20027;-94
2021/01/18 13:26:22;;;;;;;103.70;53.65;;;;;;;-7.55;67.45;96198.84;4947346;29;20034;-95
2021/01/18 13:28:49;;;;;;;97.05;54.42;;;;;;;-8.09;67.57;96121.16;4949765;29;20367;-95
2021/01/18 13:31:16;;;;;;;102.68;54.15;;;;;;;-7.95;66.52;96147.06;4949136;29;20130;-95
2021/01/18 13:33:49;;;;;;;93.85;51.10;;;;;;;-7.83;67.10;96164.66;4949025;29;20108;-95
2021/01/18 13:36:25;;;;;;;89.82;50.97;;;;;;;-7.05;66.80;96257.97;4949941;29;20035;-95
2021/01/18 13:38:51;;;;;;;91.82;49.42;;;;;;;-7.40;65.06;96211.25;4950107;29;20047;-95
2021/01/18 13:41:18;;;;;;;89.82;49.15;;;;;;;-7.81;65.26;96150.03;4932475;29;20412;-95
2021/01/18 13:43:46;;;;;;;91.78;50.88;;;;;;;-7.78;66.05;96157.25;4948769;29;20030;-95
2021/01/18 13:46:13;;;;;;;91.75;49.03;;;;;;;-8.27;65.71;96075.16;4962869;28;20412;-95
2021/01/18 13:48:39;;;;;;;85.38;47.35;;;;;;;-7.79;63.63;96153.06;4951054;29;20039;-96
2021/01/18 13:51:07;;;;;;;89.55;47.65;;;;;;;-7.25;65.54;96230.78;4951283;29;20050;-95
2021/01/18 13:53:34;;;;;;;80.25;42.67;;;;;;;-7.53;62.79;96176.25;4954450;29;20321;-95
2021/01/18 13:56:00;;;;;;;71.85;38.75;;;;;;;-7.22;62.18;96230.09;4946918;29;20063;-94
2021/01/18 13:58:25;;;;;;;60.20;30.35;;;;;;;-7.54;62.24;96185.28;4946928;29;20366;-96
2021/01/18 14:00:51;;;;;;;53.72;28.85;;;;;;;-7.29;60.53;96217.50;4947047;29;20055;-95
2021/01/18 14:03:18;;;;;;;52.50;28.45;;;;;;;-6.93;60.18;96273.69;4948318;29;20024;-96
2021/01/18 14:05:43;;;;;;;54.22;28.15;;;;;;;-7.65;61.74;96155.28;4963535;28;20487;-94
2021/01/18 14:11:34;;;;;;;51.35;27.80;;;;;;;-6.98;60.14;96274.72;4948347;29;20131;-93
2021/01/18 14:14:10;;;;;;;50.42;26.83;;;;;;;-8.30;60.44;96073.97;4951439;29;20047;-95
2021/01/18 14:16:37;;;;;;;68.88;37.25;;;;;;;-6.84;61.86;96268.97;4964561;28;20404;-95
2021/01/18 14:19:04;;;;;;;57.20;30.08;;;;;;;-7.39;60.71;96192.41;4946009;29;20063;-95
2021/01/18 14:21:30;;;;;;;55.40;29.67;;;;;;;-6.98;59.66;96279.25;4945631;29;20060;-95
2021/01/18 14:24:03;;;;;;;56.97;28.48;;;;;;;-7.00;58.83;96284.13;4945441;29;20035;-95
2021/01/18 14:26:32;;;;;;;57.03;28.85;;;;;;;-7.87;59.57;96172.50;4943873;29;20023;-94
2021/01/18 14:28:58;;;;;;;62.15;29.08;;;;;;;-7.25;60.21;96280.94;4943129;29;20031;-94
2021/01/18 14:31:26;;;;;;;57.53;29.60;;;;;;;-7.95;60.99;96176.06;4942422;29;20168;-95
2021/01/18 14:33:52;;;;;;;76.97;36.55;;;;;;;-7.61;59.52;96234.50;4962994;28;20032;-95
2021/01/18 14:36:20;;;;;;;62.70;30.48;;;;;;;-8.10;61.26;96166.28;4945717;29;20023;-96
2021/01/18 14:38:46;;;;;;;60.45;30.20;;;;;;;-7.52;75.97;96209.44;4945761;29;20031;-95
2021/01/18 14:41:19;;;;;;;56.47;30.75;;;;;;;-7.28;61.79;96200.56;4945237;29;20413;-95
2021/01/18 14:43:45;;;;;;;61.60;31.90;;;;;;;-7.08;60.33;96277.94;4942678;29;20019;-95
2021/01/18 14:46:11;;;;;;;62.95;32.97;;;;;;;-7.37;60.57;96276.53;4942826;29;20027;-95
2021/01/18 14:48:37;;;;;;;64.20;33.22;;;;;;;-7.43;60.99;96285.81;4944144;29;20040;-95
2021/01/18 14:51:04;;;;;;;60.10;31.85;;;;;;;-8.03;60.85;96214.72;4926966;29;20032;-96
2021/01/18 14:53:30;;;;;;;71.80;36.38;;;;;;;-7.87;60.90;96307.00;4944119;29;20480;-95
2021/01/18 14:55:56;;;;;;;61.28;32.17;;;;;;;-8.23;61.83;96263.16;4942200;29;20069;-95
2021/01/18 14:58:21;;;;;;;65.65;32.30;;;;;;;-8.49;61.72;96229.38;4942607;29;20028;-94
2021/01/18 15:00:46;;;;;;;61.13;31.73;;;;;;;-8.38;60.09;96254.13;4942644;29;20030;-94
2021/01/18 15:03:12;;;;;;;70.90;32.25;;;;;;;-8.71;61.66;96226.19;4943157;29;20393;-95
2021/01/18 15:05:43;;;;;;;68.50;34.80;;;;;;;-9.11;61.71;96197.25;4945038;29;20028;-93
2021/01/18 15:08:09;;;;;;;72.45;35.75;;;;;;;-9.27;61.85;96186.69;4952273;29;20388;-93
2021/01/18 15:10:35;;;;;;;82.38;38.85;;;;;;;-9.61;62.54;96163.50;4946580;29;20046;-94
2021/01/18 15:13:00;;;;;;;70.35;34.90;;;;;;;-9.74;62.47;96151.47;4942240;29;20035;-93
2021/01/18 15:15:26;;;;;;;81.10;37.85;;;;;;;-8.75;63.07;96306.19;4958897;28;20023;-94
2021/01/18 15:17:51;;;;;;;71.43;36.85;;;;;;;-9.16;62.69;96279.09;4941353;29;20035;-94
2021/01/18 15:20:16;;;;;;;74.40;36.10;;;;;;;-9.48;62.98;96214.22;4958478;28;20479;-94
2021/01/18 15:22:42;;;;;;;69.65;34.60;;;;;;;-9.67;62.65;96186.63;4958731;28;20054;-93
2021/01/18 15:25:08;;;;;;;71.78;36.35;;;;;;;-9.59;62.86;96230.44;4946954;29;20024;-92
2021/01/18 15:27:33;;;;;;;66.13;34.30;;;;;;;-9.95;63.19;96189.19;4964648;28;20099;-93
2021/01/18 15:29:59;;;;;;;69.53;35.47;;;;;;;-9.69;63.52;96214.34;4942485;29;20063;-93
2021/01/18 15:32:24;;;;;;;68.75;33.50;;;;;;;-9.48;64.47;96277.34;4945832;29;20051;-93
2021/01/18 15:47:33;;;;;;;72.72;36.35;;;;;;;-9.70;65.32;96244.38;4979879;23;20344;-93
2021/01/18 15:49:58;;;;;;;75.78;36.80;;;;;;;-10.09;64.91;96191.34;4944501;29;20028;-93
2021/01/18 15:52:24;;;;;;;65.95;33.35;;;;;;;-9.31;64.47;96303.47;4945805;29;20032;-92
2021/01/18 15:54:51;;;;;;;69.97;35.63;;;;;;;-9.52;64.67;96288.56;4944939;29;20031;-93
2021/01/18 15:57:16;;;;;;;68.32;34.10;;;;;;;-9.57;65.36;96259.06;4947084;29;20023;-93
2021/01/18 15:59:42;;;;;;;70.43;34.95;;;;;;;-9.87;65.72;96219.84;4946269;29;20024;-93
2021/01/18 16:02:07;;;;;;;75.60;35.80;;;;;;;-9.66;65.43;96237.38;4945115;29;20475;-93
2021/01/18 16:04:33;;;;;;;80.57;39.58;;;;;;;-9.39;65.26;96296.44;4943139;29;20083;-93
2021/01/18 16:06:58;;;;;;;84.72;42.70;;;;;;;-9.63;66.46;96263.03;4945317;29;20031;-92
2021/01/18 16:09:24;;;;;;;84.55;42.45;;;;;;;-9.40;66.92;96279.88;4944339;29;20032;-94
2021/01/18 16:11:49;;;;;;;124.82;61.30;;;;;;;-10.06;66.51;96175.72;4943989;29;20420;-93
2021/01/18 16:14:15;;;;;;;108.15;53.20;;;;;;;-9.51;66.72;96263.78;4944373;29;20035;-94
2021/01/18 16:16:41;;;;;;;83.10;39.97;;;;;;;-9.85;65.23;96216.91;4945342;29;20336;-93
2021/01/18 16:19:07;;;;;;;75.18;35.97;;;;;;;-10.54;65.03;96110.81;4944282;29;20027;-94
2021/01/18 16:21:42;;;;;;;72.85;36.40;;;;;;;-9.91;66.10;96202.41;4944936;29;20032;-93
2021/01/18 16:24:08;;;;;;;76.10;38.15;;;;;;;-9.80;66.07;96203.50;4926793;29;20384;-93
2021/01/18 16:26:40;;;;;;;73.32;37.30;;;;;;;-9.79;64.66;96237.38;4942877;29;20027;-94
2021/01/18 16:29:07;;;;;;;68.03;35.35;;;;;;;-9.88;64.33;96188.63;4944453;29;20034;-93
2021/01/18 16:31:33;;;;;;;75.07;37.38;;;;;;;-9.55;64.85;96262.13;4927697;29;20035;-93
2021/01/18 16:33:58;;;;;;;68.50;34.95;;;;;;;-9.12;65.30;96287.84;4943138;29;20034;-93
2021/01/18 16:36:25;;;;;;;68.85;34.63;;;;;;;-8.96;64.45;96356.38;4944094;29;20122;-94
2021/01/18 16:38:56;;;;;;;64.75;31.70;;;;;;;-9.59;65.04;96254.13;4944921;29;20440;-93
2021/01/18 16:41:22;;;;;;;69.32;35.45;;;;;;;-10.47;65.22;96110.25;4949412;29;20032;-94
2021/01/18 16:43:48;;;;;;;68.80;35.42;;;;;;;-9.64;64.00;96248.31;4933675;29;20030;-93
2021/01/18 16:46:18;;;;;;;66.72;33.70;;;;;;;-9.57;63.76;96256.44;4946830;29;20052;-93
2021/01/18 16:48:44;;;;;;;74.50;37.07;;;;;;;-9.45;64.15;96288.00;4947945;29;20052;-93
2021/01/18 16:51:10;;;;;;;70.28;35.25;;;;;;;-9.51;65.16;96255.88;4950578;29;20023;-93
2021/01/18 16:53:35;;;;;;;70.20;35.70;;;;;;;-9.46;64.20;96254.91;4949115;29;20348;-93
2021/01/18 16:56:01;;;;;;;70.18;37.28;;;;;;;-9.62;65.17;96231.13;4950518;29;20059;-93
2021/01/18 16:58:27;;;;;;;77.00;39.03;;;;;;;-9.48;65.28;96256.31;4947803;29;20213;-93
2021/01/18 17:00:52;;;;;;;71.82;36.72;;;;;;;-9.52;64.80;96241.19;4949414;29;20034;-94
2021/01/18 17:03:18;;;;;;;77.53;38.03;;;;;;;-9.72;65.04;96212.38;4949744;29;20019;-93
2021/01/18 17:05:46;;;;;;;81.93;43.75;;;;;;;-8.69;66.37;96349.66;4950422;29;20027;-93
2021/01/18 17:08:13;;;;;;;139.77;71.90;;;;;;;-8.60;68.57;96354.78;4946738;29;20052;-94
2021/01/18 17:10:39;;;;;;;175.60;90.97;;;;;;;-9.33;69.01;96248.50;4943283;29;20034;-94
2021/01/18 17:13:04;;;;;;;173.27;88.32;;;;;;;-9.07;67.58;96278.97;4942595;29;20028;-93
2021/01/18 17:15:30;;;;;;;179.98;90.43;;;;;;;-9.00;67.73;96298.38;4942439;29;20028;-93
2021/01/18 17:17:55;;;;;;;161.68;82.95;;;;;;;-8.89;68.03;96292.63;4942418;29;20138;-93
2021/01/18 17:20:21;;;;;;;151.90;80.40;;;;;;;-8.80;66.64;96301.16;4942132;29;20357;-94
2021/01/18 17:22:48;;;;;;;139.82;72.15;;;;;;;-8.63;66.68;96287.72;4942083;29;20123;-94
2021/01/18 17:25:14;;;;;;;139.38;67.85;;;;;;;-8.59;66.66;96298.38;4942190;29;20028;-94
2021/01/18 17:27:39;;;;;;;163.13;70.07;;;;;;;-8.62;68.83;96307.72;4942045;29;20074;-94
2021/01/18 17:30:06;;;;;;;122.25;60.22;;;;;;;-8.20;67.27;96358.16;4942536;29;20038;-94
2021/01/18 17:32:33;;;;;;;135.35;65.55;;;;;;;-8.70;68.02;96303.34;4942052;29;20024;-94
2021/01/18 17:34:58;;;;;;;115.15;59.08;;;;;;;-8.84;67.12;96245.78;4944719;29;20035;-93
2021/01/18 17:37:24;;;;;;;125.53;49.20;;;;;;;-8.72;66.30;96269.44;4942722;29;20107;-94
2021/01/18 17:39:50;;;;;;;100.65;51.72;;;;;;;-8.56;67.09;96306.38;4958664;28;20027;-94
2021/01/18 17:42:16;;;;;;;112.72;58.55;;;;;;;-8.80;67.67;96266.94;4943212;29;20102;-94
2021/01/18 17:44:41;;;;;;;95.90;47.30;;;;;;;-8.86;65.55;96258.50;4943673;29;20131;-94
2021/01/18 17:47:07;;;;;;;90.07;43.58;;;;;;;-8.73;66.06;96272.41;4947113;29;20074;-94
2021/01/18 17:49:33;;;;;;;85.38;42.67;;;;;;;-8.34;65.58;96304.28;4944818;29;20027;-94
2021/01/18 17:51:59;;;;;;;77.72;39.53;;;;;;;-8.75;64.19;96264.06;4940613;29;20047;-94
2021/01/18 17:54:25;;;;;;;77.28;38.78;;;;;;;-8.36;64.26;96338.91;4942900;29;20126;-94
2021/01/18 17:56:52;;;;;;;75.97;37.95;;;;;;;-9.18;64.71;96212.09;4952318;29;20024;-94
2021/01/18 18:02:39;;;;;;;84.13;42.78;;;;;;;-8.30;66.13;96315.69;4944641;29;20110;-93
2021/01/18 18:05:07;;;;;;;79.18;39.80;;;;;;;-8.49;63.52;96303.94;4950454;29;20032;-94
2021/01/18 18:07:35;;;;;;;77.97;39.45;;;;;;;-8.52;63.97;96312.50;4947668;29;20107;-94
2021/01/18 18:10:02;;;;;;;77.07;39.38;;;;;;;-8.78;63.36;96289.22;4942227;29;20028;-93
2021/01/18 18:12:28;;;;;;;73.30;38.05;;;;;;;-8.51;64.09;96332.50;4942815;29;20032;-94
2021/01/18 18:14:54;;;;;;;77.57;40.40;;;;;;;-8.82;64.64;96269.16;4944535;29;20057;-94
2021/01/18 18:17:20;;;;;;;76.50;39.33;;;;;;;-8.84;65.95;96231.81;4951418;29;20027;-94
2021/01/18 18:19:46;;;;;;;86.38;42.45;;;;;;;-8.11;65.70;96328.22;4936550;29;20075;-94
2021/01/18 18:22:14;;;;;;;80.20;40.67;;;;;;;-8.87;64.58;96230.66;4947865;29;20038;-94
2021/01/18 18:24:39;;;;;;;74.50;38.42;;;;;;;-8.34;64.73;96306.91;4944194;29;20027;-93
2021/01/18 18:27:05;;;;;;;77.90;40.30;;;;;;;-8.50;66.69;96270.78;4944461;29;20413;-93
2021/01/18 18:29:31;;;;;;;110.43;54.85;;;;;;;-8.76;66.22;96231.69;4945066;29;20032;-94
2021/01/18 18:31:56;;;;;;;105.88;55.40;;;;;;;-7.79;66.20;96364.09;4948760;29;20028;-93
2021/01/18 18:34:27;;;;;;;111.55;56.85;;;;;;;-8.53;66.92;96239.06;4949312;29;20031;-94
2021/01/18 18:37:01;;;;;;;130.05;66.07;;;;;;;-7.74;66.40;96316.38;4948312;29;20023;-94
2021/01/18 18:39:28;;;;;;;157.50;78.63;;;;;;;-7.41;66.23;96355.63;4965656;28;20032;-95
2021/01/18 18:42:02;;;;;;;164.98;88.35;;;;;;;-7.84;66.62;96314.22;4947395;29;20038;-96
2021/01/18 18:44:35;;;;;;;174.82;90.30;;;;;;;-8.84;66.37;96190.47;4948117;29;20023;-94
2021/01/18 18:47:00;;;;;;;164.25;86.00;;;;;;;-8.08;66.36;96270.31;4949649;29;20083;-94
2021/01/18 18:49:30;;;;;;;160.45;80.30;;;;;;;-7.68;66.83;96343.25;4951351;29;20043;-93
2021/01/18 18:51:58;;;;;;;143.20;70.90;;;;;;;-7.92;67.75;96329.13;4954972;29;20047;-94
2021/01/18 18:54:27;;;;;;;138.23;71.47;;;;;;;-8.06;67.32;96291.84;4956976;29;20047;-94
2021/01/18 18:56:58;;;;;;;146.68;74.40;;;;;;;-8.09;66.52;96302.31;4954305;29;20028;-93
2021/01/18 18:59:25;;;;;;;137.55;72.15;;;;;;;-8.36;67.72;96254.59;4949238;29;20027;-93
2021/01/18 19:01:57;;;;;;;127.03;65.65;;;;;;;-8.17;67.11;96282.91;4954153;29;20040;-94
2021/01/18 19:04:25;;;;;;;134.23;68.03;;;;;;;-8.54;67.46;96225.13;4970618;28;20026;-94
2021/01/18 19:06:52;;;;;;;145.52;76.10;;;;;;;-8.43;67.14;96274.69;4951084;29;20032;-93
2021/01/18 19:09:22;;;;;;;144.75;74.75;;;;;;;-7.81;67.46;96373.47;4951126;29;20420;-94
2021/01/18 19:11:50;;;;;;;121.68;61.90;;;;;;;-8.55;68.79;96251.81;4947115;29;20070;-94
2021/01/18 19:14:16;;;;;;;117.55;60.22;;;;;;;-7.98;68.72;96319.94;4968290;28;20416;-94
2021/01/18 19:16:42;;;;;;;114.07;62.35;;;;;;;-8.41;66.61;96275.13;4948320;29;20020;-94
2021/01/18 19:19:08;;;;;;;122.93;62.75;;;;;;;-8.06;68.20;96312.16;4941748;29;20231;-94
2021/01/18 19:21:34;;;;;;;103.07;54.65;;;;;;;-7.82;68.57;96354.25;4951972;29;20035;-94
2021/01/18 19:24:00;;;;;;;108.20;56.03;;;;;;;-8.07;68.17;96318.56;4958828;29;20030;-93
2021/01/18 19:26:25;;;;;;;100.53;54.13;;;;;;;-7.95;67.73;96334.31;4959278;29;20419;-93
2021/01/18 19:28:51;;;;;;;97.93;47.90;;;;;;;-8.08;66.76;96307.25;4960451;28;20031;-94
2021/01/18 19:31:18;;;;;;;88.85;47.20;;;;;;;-8.38;66.07;96258.66;4959748;28;20066;-93
2021/01/18 19:33:46;;;;;;;91.68;46.97;;;;;;;-7.83;65.79;96325.53;4959587;29;20058;-94
2021/01/18 19:36:16;;;;;;;84.78;44.92;;;;;;;-8.02;65.89;96308.53;4959819;28;20470;-93
2021/01/18 19:38:42;;;;;;;86.70;45.53;;;;;;;-7.77;67.13;96334.78;4959530;29;20031;-93
2021/01/18 19:41:08;;;;;;;90.32;45.80;;;;;;;-8.07;66.80;96286.91;4959343;29;20119;-94
2021/01/18 19:43:33;;;;;;;95.07;49.25;;;;;;;-7.95;66.23;96323.75;4960090;28;20023;-93
2021/01/18 19:46:00;;;;;;;124.72;63.28;;;;;;;-7.84;69.05;96334.56;4959530;28;20163;-93
2021/01/18 19:48:26;;;;;;;97.03;49.83;;;;;;;-7.85;68.64;96333.81;4976159;28;20031;-93
2021/01/18 19:50:53;;;;;;;80.85;41.42;;;;;;;-8.25;66.92;96281.94;4959905;28;20034;-94
2021/01/18 19:53:19;;;;;;;79.53;41.00;;;;;;;-8.31;66.96;96278.03;4962043;29;20027;-94
2021/01/18 19:55:44;;;;;;;81.03;39.75;;;;;;;-8.93;66.81;96208.28;4964084;28;20063;-94
2021/01/18 19:58:10;;;;;;;77.25;41.08;;;;;;;-8.47;67.74;96262.22;4960196;29;20034;-94
2021/01/18 20:00:36;;;;;;;87.25;44.33;;;;;;;-7.61;69.10;96382.28;4975435;28;20034;-94
2021/01/18 20:03:03;;;;;;;89.53;45.75;;;;;;;-7.74;70.02;96345.38;4962342;29;20047;-94
2021/01/18 20:05:28;;;;;;;71.10;37.08;;;;;;;-8.12;66.58;96321.44;4946416;29;20027;-94
2021/01/18 20:07:54;;;;;;;73.85;37.42;;;;;;;-7.68;68.85;96370.41;4961911;28;20074;-93
2021/01/18 20:10:19;;;;;;;73.10;38.15;;;;;;;-7.85;69.06;96338.31;4976348;28;20034;-94
2021/01/18 20:12:45;;;;;;;69.82;37.28;;;;;;;-7.68;69.57;96361.75;4963375;28;20030;-93
2021/01/18 20:15:13;;;;;;;70.60;35.92;;;;;;;-7.97;68.16;96333.88;4960525;29;20031;-94
2021/01/18 20:17:38;;;;;;;73.68;37.85;;;;;;;-7.80;68.01;96359.94;4977354;28;20428;-93
2021/01/18 20:20:07;;;;;;;67.03;36.38;;;;;;;-7.78;68.66;96351.69;4961059;29;20027;-94
2021/01/18 20:22:33;;;;;;;71.95;38.55;;;;;;;-7.88;69.21;96355.59;4963027;29;20031;-95
2021/01/18 20:24:59;;;;;;;71.47;37.08;;;;;;;-7.86;69.14;96350.75;4961437;29;20027;-94
2021/01/18 20:27:26;;;;;;;66.82;37.53;;;;;;;-8.15;72.25;96279.91;4961172;29;20027;-94
2021/01/18 20:29:55;;;;;;;69.47;35.60;;;;;;;-7.46;69.40;96397.34;4958928;29;20121;-95
2021/01/18 20:32:21;;;;;;;59.03;31.75;;;;;;;-8.47;68.18;96245.63;4975067;28;20428;-94
2021/01/18 20:34:47;;;;;;;58.42;30.33;;;;;;;-8.17;68.33;96298.72;4961315;29;20034;-95
2021/01/18 20:37:13;;;;;;;59.85;30.00;;;;;;;-8.33;69.38;96282.09;4959196;28;20089;-94
2021/01/18 20:39:39;;;;;;;59.58;30.45;;;;;;;-8.73;70.45;96207.34;4960492;28;20416;-94
2021/01/18 20:42:08;;;;;;;59.70;30.48;;;;;;;-7.88;70.62;96321.31;4960232;29;20336;-95
2021/01/18 20:44:35;;;;;;;59.38;31.33;;;;;;;-7.34;70.17;96401.78;4959645;29;20029;-94
2021/01/18 20:47:01;;;;;;;115.28;58.25;;;;;;;-7.61;70.73;96367.22;4958562;28;20339;-95
2021/01/18 20:49:27;;;;;;;80.15;43.33;;;;;;;-7.34;70.45;96404.44;4974361;28;20027;-93
2021/01/18 20:51:53;;;;;;;64.97;33.40;;;;;;;-7.80;70.05;96343.34;4962484;28;20066;-94
2021/01/18 20:54:20;;;;;;;109.55;53.25;;;;;;;-8.17;72.16;96286.28;4974757;28;20035;-94
2021/01/18 20:56:46;;;;;;;68.47;32.80;;;;;;;-7.84;70.89;96322.16;4961105;29;20086;-94
2021/01/18 20:59:15;;;;;;;60.67;31.60;;;;;;;-7.42;71.79;96382.38;4966350;29;20320;-94
2021/01/18 21:01:41;;;;;;;59.92;30.13;;;;;;;-7.92;70.79;96308.03;4963920;29;20027;-94
2021/01/18 21:04:08;;;;;;;49.42;27.27;;;;;;;-8.36;70.03;96243.25;4959781;29;20030;-94
2021/01/18 21:06:34;;;;;;;53.58;29.02;;;;;;;-7.99;69.71;96304.44;4958310;28;20059;-95
2021/01/18 21:12:22;;;;;;;57.00;28.33;;;;;;;-8.34;69.67;96256.84;4960602;29;20058;-95
2021/01/18 21:14:48;;;;;;;56.60;29.45;;;;;;;-8.34;70.38;96249.72;4990684;28;20037;-94
2021/01/18 21:20:36;;;;;;;52.60;28.75;;;;;;;-7.93;70.84;96311.78;4950319;29;20038;-94
2021/01/18 21:23:03;;;;;;;77.43;40.47;;;;;;;-7.82;70.86;96321.81;4935330;29;20036;-94
2021/01/18 21:25:29;;;;;;;53.67;29.38;;;;;;;-8.49;71.83;96224.13;4938471;29;20368;-94
2021/01/18 21:27:55;;;;;;;134.82;65.93;;;;;;;-7.77;72.01;96342.69;4950268;29;20042;-94
2021/01/18 21:30:21;;;;;;;139.13;68.10;;;;;;;-8.34;70.18;96248.94;4937816;29;20059;-94
2021/01/18 21:32:46;;;;;;;126.65;65.22;;;;;;;-7.76;71.73;96347.63;4935452;29;20036;-94
2021/01/18 21:35:13;;;;;;;123.10;62.67;;;;;;;-8.28;71.23;96243.09;4934964;29;20039;-94
2021/01/18 21:37:41;;;;;;;118.22;62.30;;;;;;;-7.88;72.70;96300.22;4930852;29;20032;-94
2021/01/18 21:40:10;;;;;;;120.25;59.45;;;;;;;-8.27;70.74;96249.13;4939845;29;20416;-94
2021/01/18 21:42:47;;;;;;;121.70;60.63;;;;;;;-7.61;72.06;96345.34;4941932;29;20083;-94
2021/01/18 21:45:19;;;;;;;120.30;61.30;;;;;;;-7.20;71.80;96420.59;4964722;29;20043;-95
2021/01/18 21:47:46;;;;;;;108.68;56.63;;;;;;;-8.37;71.25;96233.81;4975145;29;20039;-94
2021/01/18 21:50:38;;;;;;;90.05;47.50;;;;;;;-8.08;71.79;96257.16;4977432;28;20031;-94
2021/01/18 21:53:04;;;;;;;117.65;61.35;;;;;;;-7.64;70.99;96344.13;5229999;23;20006;-93
2021/01/18 21:58:06;;;;;;;132.52;66.22;;;;;;;-8.64;73.39;96180.06;4959442;28;20036;-95
2021/01/18 22:03:09;;;;;;;111.10;57.15;;;;;;;-7.51;73.12;96335.03;5574650;23;20055;-95
2021/01/18 22:05:39;;;;;;;117.20;59.05;;;;;;;-7.40;72.04;96341.34;4941354;29;20051;-95
2021/01/18 22:08:06;;;;;;;111.43;59.33;;;;;;;-7.47;72.75;96308.72;4960819;29;20023;-96
2021/01/18 22:10:32;;;;;;;121.78;61.42;;;;;;;-7.04;71.54;96381.00;4956469;29;20039;-95
2021/01/18 22:12:59;;;;;;;120.10;59.97;;;;;;;-8.42;71.42;96202.44;5137581;23;20053;-94
2021/01/18 22:15:25;;;;;;;117.13;61.00;;;;;;;-7.82;72.59;96285.66;4900589;29;20029;-95
